sensor_id;sensor_type;location;lat;lon;timestamp;P1;durP1;ratioP1;P2;durP2;ratioP2
13718;SDS011;6931;51.100;17.068;2024-01-30T00:01:24;29.65;;;12.98;;
13718;SDS011;6931;51.100;17.068;2024-01-30T00:03:50;31.30;;;12.90;;
13718;SDS011;6931;51.100;17.068;2024-01-30T00:06:20;35.22;;;15.52;;
13718;SDS011;6931;51.100;17.068;2024-01-30T00:08:50;27.58;;;13.07;;
13718;SDS011;6931;51.100;17.068;2024-01-30T00:11:19;27.60;;;12.90;;
13718;SDS011;6931;51.100;17.068;2024-01-30T00:13:45;25.17;;;12.45;;
13718;SDS011;6931;51.100;17.068;2024-01-30T00:16:21;27.15;;;12.50;;
13718;SDS011;6931;51.100;17.068;2024-01-30T00:18:48;23.17;;;11.73;;
13718;SDS011;6931;51.100;17.068;2024-01-30T00:21:15;27.00;;;12.23;;
13718;SDS011;6931;51.100;17.068;2024-01-30T00:23:41;20.98;;;11.18;;
13718;SDS011;6931;51.100;17.068;2024-01-30T00:26:07;21.95;;;11.35;;
13718;SDS011;6931;51.100;17.068;2024-01-30T00:28:34;21.20;;;11.00;;
13718;SDS011;6931;51.100;17.068;2024-01-30T00:31:00;24.73;;;13.02;;
13718;SDS011;6931;51.100;17.068;2024-01-30T00:33:27;27.33;;;12.63;;
13718;SDS011;6931;51.100;17.068;2024-01-30T00:35:53;26.45;;;12.50;;
13718;SDS011;6931;51.100;17.068;2024-01-30T00:38:20;26.98;;;11.90;;
13718;SDS011;6931;51.100;17.068;2024-01-30T00:40:46;23.50;;;12.05;;
13718;SDS011;6931;51.100;17.068;2024-01-30T00:43:13;24.00;;;10.90;;
13718;SDS011;6931;51.100;17.068;2024-01-30T00:45:39;22.23;;;11.13;;
13718;SDS011;6931;51.100;17.068;2024-01-30T00:48:06;22.77;;;11.48;;
13718;SDS011;6931;51.100;17.068;2024-01-30T00:50:32;27.05;;;11.52;;
13718;SDS011;6931;51.100;17.068;2024-01-30T00:52:59;21.95;;;11.18;;
13718;SDS011;6931;51.100;17.068;2024-01-30T00:55:25;23.80;;;11.10;;
13718;SDS011;6931;51.100;17.068;2024-01-30T00:57:52;24.13;;;12.43;;
13718;SDS011;6931;51.100;17.068;2024-01-30T01:00:18;22.25;;;11.93;;
13718;SDS011;6931;51.100;17.068;2024-01-30T01:02:46;21.45;;;12.23;;
13718;SDS011;6931;51.100;17.068;2024-01-30T01:05:13;22.30;;;11.57;;
13718;SDS011;6931;51.100;17.068;2024-01-30T01:07:40;23.13;;;11.85;;
13718;SDS011;6931;51.100;17.068;2024-01-30T01:10:09;23.05;;;11.85;;
13718;SDS011;6931;51.100;17.068;2024-01-30T01:12:37;20.75;;;9.90;;
13718;SDS011;6931;51.100;17.068;2024-01-30T01:15:04;24.67;;;12.57;;
13718;SDS011;6931;51.100;17.068;2024-01-30T01:17:31;20.73;;;10.93;;
13718;SDS011;6931;51.100;17.068;2024-01-30T01:19:57;22.70;;;11.82;;
13718;SDS011;6931;51.100;17.068;2024-01-30T01:22:24;26.50;;;12.55;;
13718;SDS011;6931;51.100;17.068;2024-01-30T01:24:50;22.52;;;11.98;;
13718;SDS011;6931;51.100;17.068;2024-01-30T01:27:17;22.55;;;11.68;;
13718;SDS011;6931;51.100;17.068;2024-01-30T01:29:43;22.10;;;10.68;;
13718;SDS011;6931;51.100;17.068;2024-01-30T01:32:10;22.23;;;11.50;;
13718;SDS011;6931;51.100;17.068;2024-01-30T01:34:36;20.77;;;10.65;;
13718;SDS011;6931;51.100;17.068;2024-01-30T01:37:03;20.05;;;11.07;;
13718;SDS011;6931;51.100;17.068;2024-01-30T01:39:29;21.92;;;12.57;;
13718;SDS011;6931;51.100;17.068;2024-01-30T01:41:56;23.27;;;11.88;;
13718;SDS011;6931;51.100;17.068;2024-01-30T01:44:22;26.08;;;11.63;;
13718;SDS011;6931;51.100;17.068;2024-01-30T01:46:48;25.65;;;11.70;;
13718;SDS011;6931;51.100;17.068;2024-01-30T01:49:15;22.75;;;10.80;;
13718;SDS011;6931;51.100;17.068;2024-01-30T01:51:42;21.95;;;11.43;;
13718;SDS011;6931;51.100;17.068;2024-01-30T01:54:11;19.02;;;10.60;;
13718;SDS011;6931;51.100;17.068;2024-01-30T01:56:38;18.95;;;10.25;;
13718;SDS011;6931;51.100;17.068;2024-01-30T01:59:05;21.00;;;10.93;;
13718;SDS011;6931;51.100;17.068;2024-01-30T02:01:32;20.55;;;11.50;;
13718;SDS011;6931;51.100;17.068;2024-01-30T02:03:59;26.58;;;10.77;;
13718;SDS011;6931;51.100;17.068;2024-01-30T02:06:26;20.85;;;10.90;;
13718;SDS011;6931;51.100;17.068;2024-01-30T02:08:56;20.02;;;9.82;;
13718;SDS011;6931;51.100;17.068;2024-01-30T02:11:24;18.27;;;10.25;;
13718;SDS011;6931;51.100;17.068;2024-01-30T02:13:50;21.00;;;10.38;;
13718;SDS011;6931;51.100;17.068;2024-01-30T02:16:17;19.20;;;9.73;;
13718;SDS011;6931;51.100;17.068;2024-01-30T02:18:43;18.95;;;9.45;;
13718;SDS011;6931;51.100;17.068;2024-01-30T02:21:16;17.67;;;9.60;;
13718;SDS011;6931;51.100;17.068;2024-01-30T02:23:43;19.05;;;9.75;;
13718;SDS011;6931;51.100;17.068;2024-01-30T02:26:10;17.23;;;9.75;;
13718;SDS011;6931;51.100;17.068;2024-01-30T02:28:38;18.42;;;10.20;;
13718;SDS011;6931;51.100;17.068;2024-01-30T02:31:04;18.50;;;9.65;;
13718;SDS011;6931;51.100;17.068;2024-01-30T02:33:34;21.63;;;10.65;;
13718;SDS011;6931;51.100;17.068;2024-01-30T02:36:00;20.33;;;10.35;;
13718;SDS011;6931;51.100;17.068;2024-01-30T02:38:27;14.75;;;9.02;;
13718;SDS011;6931;51.100;17.068;2024-01-30T02:40:53;18.98;;;10.02;;
13718;SDS011;6931;51.100;17.068;2024-01-30T02:43:19;18.45;;;10.50;;
13718;SDS011;6931;51.100;17.068;2024-01-30T02:45:46;20.08;;;9.80;;
13718;SDS011;6931;51.100;17.068;2024-01-30T02:48:13;19.70;;;9.25;;
13718;SDS011;6931;51.100;17.068;2024-01-30T02:50:39;16.65;;;9.07;;
13718;SDS011;6931;51.100;17.068;2024-01-30T02:53:06;19.55;;;9.23;;
13718;SDS011;6931;51.100;17.068;2024-01-30T02:55:32;16.45;;;9.23;;
13718;SDS011;6931;51.100;17.068;2024-01-30T02:57:59;14.60;;;8.85;;
13718;SDS011;6931;51.100;17.068;2024-01-30T03:00:26;17.63;;;9.77;;
13718;SDS011;6931;51.100;17.068;2024-01-30T03:02:52;15.15;;;8.13;;
13718;SDS011;6931;51.100;17.068;2024-01-30T03:05:19;12.00;;;7.63;;
13718;SDS011;6931;51.100;17.068;2024-01-30T03:07:45;18.33;;;9.57;;
13718;SDS011;6931;51.100;17.068;2024-01-30T03:10:12;15.90;;;8.27;;
13718;SDS011;6931;51.100;17.068;2024-01-30T03:12:38;18.60;;;9.35;;
13718;SDS011;6931;51.100;17.068;2024-01-30T03:15:05;17.45;;;9.55;;
13718;SDS011;6931;51.100;17.068;2024-01-30T03:17:31;15.63;;;9.10;;
13718;SDS011;6931;51.100;17.068;2024-01-30T03:19:58;16.88;;;9.27;;
13718;SDS011;6931;51.100;17.068;2024-01-30T03:22:25;15.75;;;9.05;;
13718;SDS011;6931;51.100;17.068;2024-01-30T03:24:51;16.52;;;9.60;;
13718;SDS011;6931;51.100;17.068;2024-01-30T03:27:18;16.90;;;8.80;;
13718;SDS011;6931;51.100;17.068;2024-01-30T03:29:44;14.80;;;8.35;;
13718;SDS011;6931;51.100;17.068;2024-01-30T03:32:11;15.88;;;8.10;;
13718;SDS011;6931;51.100;17.068;2024-01-30T03:34:37;15.10;;;7.75;;
13718;SDS011;6931;51.100;17.068;2024-01-30T03:37:04;15.02;;;8.43;;
13718;SDS011;6931;51.100;17.068;2024-01-30T03:39:30;17.20;;;9.55;;
13718;SDS011;6931;51.100;17.068;2024-01-30T03:41:57;16.38;;;9.25;;
13718;SDS011;6931;51.100;17.068;2024-01-30T03:44:23;19.17;;;9.63;;
13718;SDS011;6931;51.100;17.068;2024-01-30T03:46:50;20.23;;;10.05;;
13718;SDS011;6931;51.100;17.068;2024-01-30T03:49:16;15.25;;;8.65;;
13718;SDS011;6931;51.100;17.068;2024-01-30T03:51:43;16.00;;;8.57;;
13718;SDS011;6931;51.100;17.068;2024-01-30T03:54:09;16.27;;;8.30;;
13718;SDS011;6931;51.100;17.068;2024-01-30T03:56:36;15.45;;;8.50;;
13718;SDS011;6931;51.100;17.068;2024-01-30T03:59:02;12.85;;;7.63;;
13718;SDS011;6931;51.100;17.068;2024-01-30T04:01:29;17.27;;;8.85;;
13718;SDS011;6931;51.100;17.068;2024-01-30T04:03:55;17.65;;;9.75;;
13718;SDS011;6931;51.100;17.068;2024-01-30T04:06:22;20.35;;;10.35;;
13718;SDS011;6931;51.100;17.068;2024-01-30T04:08:48;18.88;;;10.00;;
13718;SDS011;6931;51.100;17.068;2024-01-30T04:11:15;18.25;;;9.38;;
13718;SDS011;6931;51.100;17.068;2024-01-30T04:13:44;19.98;;;9.48;;
13718;SDS011;6931;51.100;17.068;2024-01-30T04:16:19;16.67;;;8.40;;
13718;SDS011;6931;51.100;17.068;2024-01-30T04:18:46;16.65;;;8.88;;
13718;SDS011;6931;51.100;17.068;2024-01-30T04:21:13;16.77;;;8.85;;
13718;SDS011;6931;51.100;17.068;2024-01-30T04:23:40;17.63;;;9.00;;
13718;SDS011;6931;51.100;17.068;2024-01-30T04:26:06;19.40;;;9.00;;
13718;SDS011;6931;51.100;17.068;2024-01-30T04:28:33;18.90;;;9.48;;
13718;SDS011;6931;51.100;17.068;2024-01-30T04:31:00;19.23;;;9.60;;
13718;SDS011;6931;51.100;17.068;2024-01-30T04:33:27;21.63;;;9.68;;
13718;SDS011;6931;51.100;17.068;2024-01-30T04:35:53;18.95;;;9.30;;
13718;SDS011;6931;51.100;17.068;2024-01-30T04:38:20;22.38;;;11.63;;
13718;SDS011;6931;51.100;17.068;2024-01-30T04:40:46;26.15;;;12.57;;
13718;SDS011;6931;51.100;17.068;2024-01-30T04:43:13;32.40;;;14.75;;
13718;SDS011;6931;51.100;17.068;2024-01-30T04:45:41;32.70;;;15.15;;
13718;SDS011;6931;51.100;17.068;2024-01-30T04:48:07;34.10;;;14.70;;
13718;SDS011;6931;51.100;17.068;2024-01-30T04:50:34;27.42;;;11.95;;
13718;SDS011;6931;51.100;17.068;2024-01-30T04:53:00;28.10;;;13.25;;
13718;SDS011;6931;51.100;17.068;2024-01-30T04:55:27;29.85;;;12.57;;
13718;SDS011;6931;51.100;17.068;2024-01-30T04:57:53;30.67;;;13.57;;
13718;SDS011;6931;51.100;17.068;2024-01-30T05:00:20;33.25;;;12.90;;
13718;SDS011;6931;51.100;17.068;2024-01-30T05:02:46;30.67;;;13.48;;
13718;SDS011;6931;51.100;17.068;2024-01-30T05:05:13;30.83;;;13.32;;
13718;SDS011;6931;51.100;17.068;2024-01-30T05:07:40;34.58;;;14.20;;
13718;SDS011;6931;51.100;17.068;2024-01-30T05:10:07;32.67;;;14.43;;
13718;SDS011;6931;51.100;17.068;2024-01-30T05:12:34;35.03;;;14.57;;
13718;SDS011;6931;51.100;17.068;2024-01-30T05:15:01;30.75;;;14.85;;
13718;SDS011;6931;51.100;17.068;2024-01-30T05:17:30;36.28;;;15.98;;
13718;SDS011;6931;51.100;17.068;2024-01-30T05:19:56;39.63;;;16.02;;
13718;SDS011;6931;51.100;17.068;2024-01-30T05:22:23;41.22;;;16.35;;
13718;SDS011;6931;51.100;17.068;2024-01-30T05:24:49;34.22;;;15.80;;
13718;SDS011;6931;51.100;17.068;2024-01-30T05:27:16;38.88;;;14.30;;
13718;SDS011;6931;51.100;17.068;2024-01-30T05:29:42;38.90;;;14.13;;
13718;SDS011;6931;51.100;17.068;2024-01-30T05:32:09;34.75;;;13.98;;
13718;SDS011;6931;51.100;17.068;2024-01-30T05:34:37;38.15;;;13.60;;
13718;SDS011;6931;51.100;17.068;2024-01-30T05:37:03;31.80;;;13.77;;
13718;SDS011;6931;51.100;17.068;2024-01-30T05:39:30;34.75;;;13.55;;
13718;SDS011;6931;51.100;17.068;2024-01-30T05:41:59;33.03;;;13.23;;
13718;SDS011;6931;51.100;17.068;2024-01-30T05:44:25;37.50;;;13.82;;
13718;SDS011;6931;51.100;17.068;2024-01-30T05:46:52;31.65;;;13.50;;
13718;SDS011;6931;51.100;17.068;2024-01-30T05:49:18;34.60;;;13.07;;
13718;SDS011;6931;51.100;17.068;2024-01-30T05:51:44;32.55;;;12.85;;
13718;SDS011;6931;51.100;17.068;2024-01-30T05:54:11;29.23;;;12.95;;
13718;SDS011;6931;51.100;17.068;2024-01-30T05:56:41;31.58;;;13.85;;
13718;SDS011;6931;51.100;17.068;2024-01-30T05:59:08;25.20;;;11.50;;
13718;SDS011;6931;51.100;17.068;2024-01-30T06:01:34;27.42;;;10.95;;
13718;SDS011;6931;51.100;17.068;2024-01-30T06:04:01;27.38;;;10.60;;
13718;SDS011;6931;51.100;17.068;2024-01-30T06:06:28;27.35;;;12.90;;
13718;SDS011;6931;51.100;17.068;2024-01-30T06:08:54;31.08;;;13.27;;
13718;SDS011;6931;51.100;17.068;2024-01-30T06:11:22;30.25;;;13.20;;
13718;SDS011;6931;51.100;17.068;2024-01-30T06:13:48;32.90;;;13.65;;
13718;SDS011;6931;51.100;17.068;2024-01-30T06:16:15;25.25;;;11.75;;
13718;SDS011;6931;51.100;17.068;2024-01-30T06:18:43;27.83;;;11.88;;
13718;SDS011;6931;51.100;17.068;2024-01-30T06:21:09;25.98;;;11.10;;
13718;SDS011;6931;51.100;17.068;2024-01-30T06:23:38;25.98;;;11.48;;
13718;SDS011;6931;51.100;17.068;2024-01-30T06:26:06;30.02;;;12.15;;
13718;SDS011;6931;51.100;17.068;2024-01-30T06:28:32;20.58;;;10.50;;
13718;SDS011;6931;51.100;17.068;2024-01-30T06:31:00;29.17;;;12.10;;
13718;SDS011;6931;51.100;17.068;2024-01-30T06:33:27;23.63;;;10.30;;
13718;SDS011;6931;51.100;17.068;2024-01-30T06:35:53;27.67;;;11.23;;
13718;SDS011;6931;51.100;17.068;2024-01-30T06:38:20;22.48;;;10.82;;
13718;SDS011;6931;51.100;17.068;2024-01-30T06:40:46;25.05;;;11.68;;
13718;SDS011;6931;51.100;17.068;2024-01-30T06:43:13;28.10;;;10.95;;
13718;SDS011;6931;51.100;17.068;2024-01-30T06:45:39;30.13;;;14.63;;
13718;SDS011;6931;51.100;17.068;2024-01-30T06:48:07;31.30;;;14.60;;
13718;SDS011;6931;51.100;17.068;2024-01-30T06:50:33;34.35;;;13.43;;
13718;SDS011;6931;51.100;17.068;2024-01-30T06:53:00;32.50;;;13.73;;
13718;SDS011;6931;51.100;17.068;2024-01-30T06:55:26;27.75;;;12.18;;
13718;SDS011;6931;51.100;17.068;2024-01-30T06:57:53;24.98;;;10.05;;
13718;SDS011;6931;51.100;17.068;2024-01-30T07:00:19;27.42;;;10.23;;
13718;SDS011;6931;51.100;17.068;2024-01-30T07:02:46;20.67;;;9.32;;
13718;SDS011;6931;51.100;17.068;2024-01-30T07:05:13;21.10;;;9.95;;
13718;SDS011;6931;51.100;17.068;2024-01-30T07:07:40;22.75;;;10.10;;
13718;SDS011;6931;51.100;17.068;2024-01-30T07:10:07;20.05;;;10.38;;
13718;SDS011;6931;51.100;17.068;2024-01-30T07:12:33;30.58;;;12.73;;
13718;SDS011;6931;51.100;17.068;2024-01-30T07:15:00;25.42;;;12.40;;
13718;SDS011;6931;51.100;17.068;2024-01-30T07:17:27;26.98;;;12.23;;
13718;SDS011;6931;51.100;17.068;2024-01-30T07:19:53;31.90;;;13.80;;
13718;SDS011;6931;51.100;17.068;2024-01-30T07:22:20;27.10;;;12.85;;
13718;SDS011;6931;51.100;17.068;2024-01-30T07:24:47;22.05;;;12.43;;
13718;SDS011;6931;51.100;17.068;2024-01-30T07:27:15;23.92;;;13.05;;
13718;SDS011;6931;51.100;17.068;2024-01-30T07:29:44;27.48;;;16.40;;
13718;SDS011;6931;51.100;17.068;2024-01-30T07:32:10;26.08;;;12.80;;
13718;SDS011;6931;51.100;17.068;2024-01-30T07:34:37;18.40;;;9.77;;
13718;SDS011;6931;51.100;17.068;2024-01-30T07:37:18;28.65;;;15.25;;
13718;SDS011;6931;51.100;17.068;2024-01-30T07:39:45;23.15;;;14.15;;
13718;SDS011;6931;51.100;17.068;2024-01-30T07:42:12;24.08;;;12.60;;
13718;SDS011;6931;51.100;17.068;2024-01-30T07:44:38;30.50;;;18.20;;
13718;SDS011;6931;51.100;17.068;2024-01-30T07:47:05;22.70;;;13.60;;
13718;SDS011;6931;51.100;17.068;2024-01-30T07:49:31;22.95;;;12.30;;
13718;SDS011;6931;51.100;17.068;2024-01-30T07:51:58;23.92;;;11.73;;
13718;SDS011;6931;51.100;17.068;2024-01-30T07:54:25;22.90;;;11.82;;
13718;SDS011;6931;51.100;17.068;2024-01-30T07:56:51;24.77;;;12.50;;
13718;SDS011;6931;51.100;17.068;2024-01-30T07:59:18;21.45;;;10.75;;
13718;SDS011;6931;51.100;17.068;2024-01-30T08:01:45;21.85;;;11.07;;
13718;SDS011;6931;51.100;17.068;2024-01-30T08:04:12;21.75;;;11.02;;
13718;SDS011;6931;51.100;17.068;2024-01-30T08:06:38;20.95;;;10.65;;
13718;SDS011;6931;51.100;17.068;2024-01-30T08:09:09;19.20;;;10.27;;
13718;SDS011;6931;51.100;17.068;2024-01-30T08:11:35;24.10;;;11.02;;
13718;SDS011;6931;51.100;17.068;2024-01-30T08:14:02;21.25;;;11.13;;
13718;SDS011;6931;51.100;17.068;2024-01-30T08:16:28;20.52;;;10.52;;
13718;SDS011;6931;51.100;17.068;2024-01-30T08:18:55;19.85;;;10.55;;
13718;SDS011;6931;51.100;17.068;2024-01-30T08:21:24;24.27;;;9.98;;
13718;SDS011;6931;51.100;17.068;2024-01-30T08:23:50;21.25;;;9.77;;
13718;SDS011;6931;51.100;17.068;2024-01-30T08:26:17;16.23;;;9.30;;
13718;SDS011;6931;51.100;17.068;2024-01-30T08:28:43;15.48;;;9.30;;
13718;SDS011;6931;51.100;17.068;2024-01-30T08:31:10;19.75;;;8.52;;
13718;SDS011;6931;51.100;17.068;2024-01-30T08:33:37;17.67;;;8.95;;
13718;SDS011;6931;51.100;17.068;2024-01-30T08:36:06;20.42;;;9.93;;
13718;SDS011;6931;51.100;17.068;2024-01-30T08:38:32;21.73;;;8.75;;
13718;SDS011;6931;51.100;17.068;2024-01-30T08:40:59;19.33;;;7.78;;
13718;SDS011;6931;51.100;17.068;2024-01-30T08:43:25;14.20;;;8.15;;
13718;SDS011;6931;51.100;17.068;2024-01-30T08:45:52;16.35;;;8.13;;
13718;SDS011;6931;51.100;17.068;2024-01-30T08:48:18;17.85;;;7.80;;
13718;SDS011;6931;51.100;17.068;2024-01-30T08:50:45;18.08;;;8.00;;
13718;SDS011;6931;51.100;17.068;2024-01-30T08:53:11;14.32;;;6.70;;
13718;SDS011;6931;51.100;17.068;2024-01-30T08:55:38;12.15;;;6.55;;
13718;SDS011;6931;51.100;17.068;2024-01-30T08:58:05;18.55;;;7.03;;
13718;SDS011;6931;51.100;17.068;2024-01-30T09:00:31;15.93;;;5.75;;
13718;SDS011;6931;51.100;17.068;2024-01-30T09:02:58;11.88;;;5.43;;
13718;SDS011;6931;51.100;17.068;2024-01-30T09:05:24;11.25;;;5.55;;
13718;SDS011;6931;51.100;17.068;2024-01-30T09:07:51;9.30;;;5.40;;
13718;SDS011;6931;51.100;17.068;2024-01-30T09:10:17;10.60;;;5.25;;
13718;SDS011;6931;51.100;17.068;2024-01-30T09:12:46;10.90;;;5.30;;
13718;SDS011;6931;51.100;17.068;2024-01-30T09:15:13;14.38;;;5.43;;
13718;SDS011;6931;51.100;17.068;2024-01-30T09:17:40;7.35;;;4.43;;
13718;SDS011;6931;51.100;17.068;2024-01-30T09:20:06;8.43;;;4.45;;
13718;SDS011;6931;51.100;17.068;2024-01-30T09:22:33;8.30;;;4.30;;
13718;SDS011;6931;51.100;17.068;2024-01-30T09:25:00;6.63;;;3.97;;
13718;SDS011;6931;51.100;17.068;2024-01-30T09:27:26;14.77;;;4.82;;
13718;SDS011;6931;51.100;17.068;2024-01-30T09:29:53;7.72;;;4.10;;
13718;SDS011;6931;51.100;17.068;2024-01-30T09:32:19;8.20;;;4.70;;
13718;SDS011;6931;51.100;17.068;2024-01-30T09:34:46;7.90;;;4.40;;
13718;SDS011;6931;51.100;17.068;2024-01-30T09:37:12;6.80;;;5.00;;
13718;SDS011;6931;51.100;17.068;2024-01-30T09:39:41;7.95;;;4.00;;
13718;SDS011;6931;51.100;17.068;2024-01-30T09:42:50;7.57;;;3.97;;
13718;SDS011;6931;51.100;17.068;2024-01-30T09:44:57;7.13;;;4.18;;
13718;SDS011;6931;51.100;17.068;2024-01-30T09:47:24;10.43;;;4.55;;
13718;SDS011;6931;51.100;17.068;2024-01-30T09:49:51;8.05;;;4.10;;
13718;SDS011;6931;51.100;17.068;2024-01-30T09:52:17;7.78;;;4.13;;
13718;SDS011;6931;51.100;17.068;2024-01-30T09:54:45;7.55;;;4.40;;
13718;SDS011;6931;51.100;17.068;2024-01-30T09:57:11;8.43;;;4.05;;
13718;SDS011;6931;51.100;17.068;2024-01-30T09:59:38;8.30;;;4.10;;
13718;SDS011;6931;51.100;17.068;2024-01-30T10:02:04;13.82;;;4.20;;
13718;SDS011;6931;51.100;17.068;2024-01-30T10:04:31;8.13;;;4.18;;
13718;SDS011;6931;51.100;17.068;2024-01-30T10:06:59;6.93;;;4.13;;
13718;SDS011;6931;51.100;17.068;2024-01-30T10:09:26;8.95;;;4.28;;
13718;SDS011;6931;51.100;17.068;2024-01-30T10:11:52;8.88;;;4.03;;
13718;SDS011;6931;51.100;17.068;2024-01-30T10:14:19;7.07;;;4.43;;
13718;SDS011;6931;51.100;17.068;2024-01-30T10:16:46;11.88;;;3.95;;
13718;SDS011;6931;51.100;17.068;2024-01-30T10:19:13;7.20;;;4.00;;
13718;SDS011;6931;51.100;17.068;2024-01-30T10:21:40;9.57;;;4.05;;
13718;SDS011;6931;51.100;17.068;2024-01-30T10:24:06;7.18;;;3.80;;
13718;SDS011;6931;51.100;17.068;2024-01-30T10:26:33;10.18;;;3.70;;
13718;SDS011;6931;51.100;17.068;2024-01-30T10:29:00;8.48;;;3.80;;
13718;SDS011;6931;51.100;17.068;2024-01-30T10:31:27;6.75;;;3.88;;
13718;SDS011;6931;51.100;17.068;2024-01-30T10:33:53;7.75;;;4.05;;
13718;SDS011;6931;51.100;17.068;2024-01-30T10:36:39;7.65;;;4.22;;
13718;SDS011;6931;51.100;17.068;2024-01-30T10:39:05;6.80;;;3.85;;
13718;SDS011;6931;51.100;17.068;2024-01-30T10:41:33;10.10;;;4.60;;
13718;SDS011;6931;51.100;17.068;2024-01-30T10:44:08;9.30;;;4.20;;
13718;SDS011;6931;51.100;17.068;2024-01-30T10:46:35;8.80;;;4.35;;
13718;SDS011;6931;51.100;17.068;2024-01-30T10:49:04;7.88;;;3.85;;
13718;SDS011;6931;51.100;17.068;2024-01-30T10:51:32;7.80;;;3.67;;
13718;SDS011;6931;51.100;17.068;2024-01-30T10:53:58;8.63;;;3.83;;
13718;SDS011;6931;51.100;17.068;2024-01-30T10:56:26;13.38;;;3.92;;
13718;SDS011;6931;51.100;17.068;2024-01-30T10:58:53;6.57;;;3.80;;
13718;SDS011;6931;51.100;17.068;2024-01-30T11:01:20;10.10;;;4.53;;
13718;SDS011;6931;51.100;17.068;2024-01-30T11:03:50;8.98;;;4.00;;
13718;SDS011;6931;51.100;17.068;2024-01-30T11:06:17;9.00;;;3.90;;
13718;SDS011;6931;51.100;17.068;2024-01-30T11:09:00;5.80;;;4.03;;
13718;SDS011;6931;51.100;17.068;2024-01-30T11:11:27;10.35;;;4.07;;
13718;SDS011;6931;51.100;17.068;2024-01-30T11:13:53;5.47;;;3.80;;
13718;SDS011;6931;51.100;17.068;2024-01-30T11:16:20;8.80;;;4.47;;
13718;SDS011;6931;51.100;17.068;2024-01-30T11:18:50;8.13;;;4.55;;
13718;SDS011;6931;51.100;17.068;2024-01-30T11:21:18;8.65;;;4.45;;
13718;SDS011;6931;51.100;17.068;2024-01-30T11:23:44;7.45;;;3.90;;
13718;SDS011;6931;51.100;17.068;2024-01-30T11:26:11;9.13;;;3.85;;
13718;SDS011;6931;51.100;17.068;2024-01-30T11:28:38;7.28;;;3.78;;
13718;SDS011;6931;51.100;17.068;2024-01-30T11:31:05;6.88;;;4.03;;
13718;SDS011;6931;51.100;17.068;2024-01-30T11:33:33;6.65;;;3.60;;
13718;SDS011;6931;51.100;17.068;2024-01-30T11:36:00;6.60;;;3.72;;
13718;SDS011;6931;51.100;17.068;2024-01-30T11:38:27;7.93;;;3.67;;
13718;SDS011;6931;51.100;17.068;2024-01-30T11:40:54;9.20;;;3.75;;
13718;SDS011;6931;51.100;17.068;2024-01-30T11:43:22;11.38;;;4.25;;
13718;SDS011;6931;51.100;17.068;2024-01-30T11:45:48;14.48;;;4.40;;
13718;SDS011;6931;51.100;17.068;2024-01-30T11:48:15;8.90;;;4.40;;
13718;SDS011;6931;51.100;17.068;2024-01-30T11:50:42;8.90;;;4.18;;
13718;SDS011;6931;51.100;17.068;2024-01-30T11:53:10;7.57;;;4.80;;
13718;SDS011;6931;51.100;17.068;2024-01-30T11:55:37;5.18;;;3.72;;
13718;SDS011;6931;51.100;17.068;2024-01-30T11:58:04;8.52;;;4.30;;
13718;SDS011;6931;51.100;17.068;2024-01-30T12:00:31;5.78;;;3.67;;
13718;SDS011;6931;51.100;17.068;2024-01-30T12:02:59;7.00;;;3.85;;
13718;SDS011;6931;51.100;17.068;2024-01-30T12:05:27;6.50;;;3.80;;
13718;SDS011;6931;51.100;17.068;2024-01-30T12:07:54;5.50;;;4.10;;
13718;SDS011;6931;51.100;17.068;2024-01-30T12:10:21;8.77;;;4.15;;
13718;SDS011;6931;51.100;17.068;2024-01-30T12:12:49;6.28;;;3.90;;
13718;SDS011;6931;51.100;17.068;2024-01-30T12:15:16;9.32;;;4.25;;
13718;SDS011;6931;51.100;17.068;2024-01-30T12:17:42;7.72;;;3.78;;
13718;SDS011;6931;51.100;17.068;2024-01-30T12:20:13;8.55;;;3.58;;
13718;SDS011;6931;51.100;17.068;2024-01-30T12:22:44;5.20;;;3.55;;
13718;SDS011;6931;51.100;17.068;2024-01-30T12:25:11;7.50;;;3.40;;
13718;SDS011;6931;51.100;17.068;2024-01-30T12:27:39;8.73;;;3.90;;
13718;SDS011;6931;51.100;17.068;2024-01-30T12:30:06;8.32;;;3.85;;
13718;SDS011;6931;51.100;17.068;2024-01-30T12:32:36;4.95;;;3.58;;
13718;SDS011;6931;51.100;17.068;2024-01-30T12:35:03;6.18;;;3.70;;
13718;SDS011;6931;51.100;17.068;2024-01-30T12:37:30;8.05;;;3.60;;
13718;SDS011;6931;51.100;17.068;2024-01-30T12:39:56;7.32;;;3.67;;
13718;SDS011;6931;51.100;17.068;2024-01-30T12:42:23;6.30;;;3.75;;
13718;SDS011;6931;51.100;17.068;2024-01-30T12:44:49;8.35;;;3.90;;
13718;SDS011;6931;51.100;17.068;2024-01-30T12:47:16;9.38;;;3.83;;
13718;SDS011;6931;51.100;17.068;2024-01-30T12:49:43;5.72;;;3.80;;
13718;SDS011;6931;51.100;17.068;2024-01-30T12:52:11;7.18;;;4.10;;
13718;SDS011;6931;51.100;17.068;2024-01-30T12:54:38;7.63;;;3.67;;
13718;SDS011;6931;51.100;17.068;2024-01-30T12:57:05;5.15;;;3.60;;
13718;SDS011;6931;51.100;17.068;2024-01-30T12:59:32;8.65;;;4.40;;
13718;SDS011;6931;51.100;17.068;2024-01-30T13:02:01;6.25;;;3.63;;
13718;SDS011;6931;51.100;17.068;2024-01-30T13:04:28;7.25;;;4.65;;
13718;SDS011;6931;51.100;17.068;2024-01-30T13:06:55;7.60;;;4.03;;
13718;SDS011;6931;51.100;17.068;2024-01-30T13:09:23;7.43;;;4.38;;
13718;SDS011;6931;51.100;17.068;2024-01-30T13:11:50;10.07;;;4.13;;
13718;SDS011;6931;51.100;17.068;2024-01-30T13:14:19;7.93;;;4.28;;
13718;SDS011;6931;51.100;17.068;2024-01-30T13:16:46;11.13;;;4.90;;
13718;SDS011;6931;51.100;17.068;2024-01-30T13:19:15;8.73;;;4.72;;
13718;SDS011;6931;51.100;17.068;2024-01-30T13:21:42;9.23;;;4.22;;
13718;SDS011;6931;51.100;17.068;2024-01-30T13:24:09;8.55;;;4.18;;
13718;SDS011;6931;51.100;17.068;2024-01-30T13:26:35;7.40;;;4.20;;
13718;SDS011;6931;51.100;17.068;2024-01-30T13:29:02;7.30;;;4.45;;
13718;SDS011;6931;51.100;17.068;2024-01-30T13:31:29;9.05;;;4.47;;
13718;SDS011;6931;51.100;17.068;2024-01-30T13:33:56;6.88;;;4.60;;
13718;SDS011;6931;51.100;17.068;2024-01-30T13:36:23;6.45;;;4.05;;
13718;SDS011;6931;51.100;17.068;2024-01-30T13:38:49;13.82;;;4.30;;
13718;SDS011;6931;51.100;17.068;2024-01-30T13:41:15;10.73;;;5.05;;
13718;SDS011;6931;51.100;17.068;2024-01-30T13:43:43;8.07;;;4.82;;
13718;SDS011;6931;51.100;17.068;2024-01-30T13:46:10;7.82;;;4.88;;
13718;SDS011;6931;51.100;17.068;2024-01-30T13:48:37;8.82;;;4.95;;
13718;SDS011;6931;51.100;17.068;2024-01-30T13:51:03;10.82;;;5.45;;
13718;SDS011;6931;51.100;17.068;2024-01-30T13:53:30;9.93;;;4.85;;
13718;SDS011;6931;51.100;17.068;2024-01-30T13:55:56;10.20;;;5.05;;
13718;SDS011;6931;51.100;17.068;2024-01-30T13:58:23;10.00;;;4.93;;
13718;SDS011;6931;51.100;17.068;2024-01-30T14:00:50;10.30;;;4.65;;
13718;SDS011;6931;51.100;17.068;2024-01-30T14:03:16;10.77;;;4.70;;
13718;SDS011;6931;51.100;17.068;2024-01-30T14:05:43;12.15;;;5.32;;
13718;SDS011;6931;51.100;17.068;2024-01-30T14:08:10;7.72;;;4.70;;
13718;SDS011;6931;51.100;17.068;2024-01-30T14:10:37;8.65;;;5.63;;
13718;SDS011;6931;51.100;17.068;2024-01-30T14:13:03;11.75;;;5.35;;
13718;SDS011;6931;51.100;17.068;2024-01-30T14:15:30;8.70;;;5.20;;
13718;SDS011;6931;51.100;17.068;2024-01-30T14:17:56;11.45;;;5.20;;
13718;SDS011;6931;51.100;17.068;2024-01-30T14:20:25;10.52;;;5.07;;
13718;SDS011;6931;51.100;17.068;2024-01-30T14:22:51;7.07;;;4.80;;
13718;SDS011;6931;51.100;17.068;2024-01-30T14:25:20;8.52;;;4.78;;
13718;SDS011;6931;51.100;17.068;2024-01-30T14:27:46;10.10;;;4.53;;
13718;SDS011;6931;51.100;17.068;2024-01-30T14:30:13;9.32;;;4.85;;
13718;SDS011;6931;51.100;17.068;2024-01-30T14:32:39;8.70;;;4.80;;